Time;durP1;ratioP1;P1;durP2;ratioP2;P2;SDS_P1;SDS_P2;PMS_P1;PMS_P2;Temp;Humidity;BMP_temperature;BMP_pressure;BME280_temperature;BME280_humidity;BME280_pressure;Samples;Min_cycle;Max_cycle;Signal;HPM_P1;HPM_P2
2021/08/07 00:00:00;;;;;;;;;2.00;0.00;;;;;19.27;55.84;100258.00;5057773;28;45695;-86
2021/08/07 00:02:25;;;;;;;;;2.33;0.00;;;;;19.25;55.58;100259.00;5059625;28;45409;-85
2021/08/07 00:04:51;;;;;;;;;1.00;0.67;;;;;19.20;55.55;100252.00;5076377;28;45314;-86
2021/08/07 00:07:16;;;;;;;;;0.67;0.67;;;;;19.25;55.88;100262.50;5075936;28;45285;-85
2021/08/07 00:09:42;;;;;;;;;0.00;0.00;;;;;19.21;55.61;100258.19;5074583;28;45383;-85
2021/08/07 00:12:07;;;;;;;;;1.00;0.00;;;;;19.18;55.91;100260.94;5065353;28;45288;-85
2021/08/07 00:14:33;;;;;;;;;2.33;0.67;;;;;19.14;55.81;100256.56;5057872;28;45277;-86
2021/08/07 00:16:58;;;;;;;;;0.67;0.67;;;;;19.09;55.70;100248.69;5059260;28;45277;-85
2021/08/07 00:19:24;;;;;;;;;2.00;0.67;;;;;19.03;55.96;100244.41;5057946;28;45353;-86
2021/08/07 00:21:49;;;;;;;;;1.00;0.67;;;;;19.05;55.85;100253.25;5058260;28;45268;-86
2021/08/07 00:24:15;;;;;;;;;0.33;0.33;;;;;18.94;56.01;100236.66;5058219;28;45829;-86
2021/08/07 00:26:41;;;;;;;;;0.67;0.67;;;;;18.99;56.12;100248.06;5057853;28;45275;-85
2021/08/07 00:29:07;;;;;;;;;2.67;0.67;;;;;19.01;56.03;100250.69;5058065;28;45326;-86
2021/08/07 00:31:32;;;;;;;;;0.67;0.67;;;;;18.94;55.96;100245.50;5057880;28;45406;-86
2021/08/07 00:33:58;;;;;;;;;2.00;0.67;;;;;18.92;56.33;100235.81;5057656;28;45749;-86
2021/08/07 00:36:23;;;;;;;;;0.33;0.33;;;;;18.95;56.49;100251.72;5057544;28;45294;-85
2021/08/07 00:38:49;;;;;;;;;1.00;1.00;;;;;18.92;56.57;100244.69;5056423;28;45870;-86
2021/08/07 00:41:14;;;;;;;;;1.67;0.00;;;;;18.91;56.39;100237.59;5058897;28;45413;-86
2021/08/07 00:43:39;;;;;;;;;0.67;0.67;;;;;18.91;56.32;100234.06;5058264;28;47020;-85
2021/08/07 00:46:05;;;;;;;;;0.67;0.67;;;;;18.90;56.47;100240.28;5057965;28;45410;-85
2021/08/07 00:48:30;;;;;;;;;0.00;0.00;;;;;18.83;56.41;100232.47;5056898;28;45672;-85
2021/08/07 00:50:56;;;;;;;;;0.33;0.33;;;;;18.82;56.34;100233.41;5058917;28;45389;-85
2021/08/07 00:53:22;;;;;;;;;0.00;0.00;;;;;18.82;56.59;100243.16;5061667;28;45326;-85
2021/08/07 00:55:48;;;;;;;;;1.67;0.67;;;;;18.79;56.65;100240.56;5060090;28;45477;-85
2021/08/07 00:58:13;;;;;;;;;0.00;0.00;;;;;18.71;56.86;100227.44;5060936;28;45448;-85
2021/08/07 01:00:39;;;;;;;;;0.67;0.67;;;;;18.73;56.87;100237.16;5060566;28;45224;-85
2021/08/07 01:03:36;;;;;;;;;0.33;0.00;;;;;18.72;56.49;100234.50;5059447;28;45686;-85
2021/08/07 01:06:24;;;;;;;;;0.33;0.33;;;;;18.72;56.40;100237.16;5060520;28;45399;-85
2021/08/07 01:09:08;;;;;;;;;0.00;0.00;;;;;18.67;57.10;100237.31;4998227;28;45530;-85
2021/08/07 01:11:43;;;;;;;;;0.00;0.00;;;;;18.62;57.17;100226.75;4998856;28;45441;-85
2021/08/07 01:14:09;;;;;;;;;1.33;0.33;;;;;18.60;57.07;100220.59;4999314;28;45496;-87
2021/08/07 01:16:41;;;;;;;;;0.67;0.33;;;;;18.63;57.05;100230.31;4998898;28;45408;-87
2021/08/07 01:19:30;;;;;;;;;0.67;0.67;;;;;18.56;57.14;100224.25;4999203;28;45301;-87
2021/08/07 01:22:01;;;;;;;;;2.33;0.67;;;;;18.57;56.90;100222.47;4998833;28;45373;-87
2021/08/07 01:24:40;;;;;;;;;1.67;0.00;;;;;18.56;57.26;100218.94;4981721;28;47395;-87
2021/08/07 01:27:31;;;;;;;;;1.67;0.67;;;;;18.53;57.04;100224.31;4998462;28;45433;-85
2021/08/07 01:29:57;;;;;;;;;0.00;0.00;;;;;18.48;57.31;100227.09;4998184;28;45414;-86
2021/08/07 01:32:28;;;;;;;;;0.00;0.00;;;;;18.45;57.19;100228.94;4997766;28;45492;-85
2021/08/07 01:34:54;;;;;;;;;0.67;0.67;;;;;18.44;57.05;100224.53;4997116;28;47632;-86
2021/08/07 01:37:21;;;;;;;;;1.33;0.00;;;;;18.42;57.52;100221.03;4997600;28;45315;-86
2021/08/07 01:39:52;;;;;;;;;1.67;0.67;;;;;18.42;57.48;100215.72;4998667;28;45239;-85
2021/08/07 01:42:17;;;;;;;;;1.00;0.00;;;;;18.39;57.42;100221.97;4999439;28;45376;-85
2021/08/07 01:44:43;;;;;;;;;1.00;1.00;;;;;18.32;57.29;100213.25;4998228;28;46500;-85
2021/08/07 01:47:43;;;;;;;;;0.33;0.00;;;;;18.33;57.19;100223.00;5060634;28;45954;-86
2021/08/07 01:50:29;;;;;;;;;2.67;0.00;;;;;18.31;57.44;100218.63;5056378;28;45579;-85
2021/08/07 01:53:02;;;;;;;;;1.67;0.33;;;;;18.28;57.51;100214.25;5059306;28;45384;-86
2021/08/07 01:55:33;;;;;;;;;1.67;0.67;;;;;18.21;57.75;100202.00;5063007;28;46434;-84
2021/08/07 01:58:23;;;;;;;;;0.00;0.00;;;;;18.24;57.36;100212.56;5065167;28;45152;-86
2021/08/07 02:00:49;;;;;;;;;1.00;0.00;;;;;18.20;57.53;100202.91;5065247;28;45515;-85
2021/08/07 02:03:16;;;;;;;;;1.33;0.00;;;;;18.19;57.69;100207.34;5065483;28;45488;-85
2021/08/07 02:05:43;;;;;;;;;1.00;0.33;;;;;18.17;58.04;100193.19;5065423;28;46310;-85
2021/08/07 02:08:10;;;;;;;;;0.00;0.00;;;;;18.17;57.87;100198.53;5066121;28;45268;-85
2021/08/07 02:10:40;;;;;;;;;2.00;2.00;;;;;18.16;58.04;100196.75;5066599;28;45270;-86
2021/08/07 02:13:07;;;;;;;;;3.00;0.00;;;;;18.15;58.01;100193.22;5066163;28;45382;-86
2021/08/07 02:15:34;;;;;;;;;1.67;1.33;;;;;18.06;57.85;100190.78;5065093;28;45369;-86
2021/08/07 02:18:00;;;;;;;;;2.00;1.00;;;;;18.10;57.93;100195.13;5059900;28;45311;-86
2021/08/07 02:20:27;;;;;;;;;5.33;1.33;;;;;18.09;57.51;100189.81;5060105;28;45381;-85
2021/08/07 02:22:52;;;;;;;;;1.67;0.33;;;;;18.07;58.01;100192.50;5060838;28;45307;-85
2021/08/07 02:25:21;;;;;;;;;2.67;1.00;;;;;18.06;57.81;100188.13;5058696;28;47229;-86
2021/08/07 02:27:47;;;;;;;;;4.33;1.00;;;;;18.05;58.03;100197.00;5060735;28;45413;-86
2021/08/07 02:30:13;;;;;;;;;0.67;0.67;;;;;17.97;57.86;100172.34;5060448;28;45318;-85
2021/08/07 02:32:41;;;;;;;;;2.00;1.00;;;;;18.03;57.93;100178.41;5060974;28;45237;-85
2021/08/07 02:35:09;;;;;;;;;1.00;0.00;;;;;18.04;58.13;100176.66;5060004;28;45496;-85
2021/08/07 02:37:35;;;;;;;;;2.00;0.00;;;;;18.01;58.40;100163.41;5060726;28;45397;-86
2021/08/07 02:40:04;;;;;;;;;1.00;1.00;;;;;18.04;58.08;100173.97;5059717;28;45309;-84
2021/08/07 02:42:31;;;;;;;;;2.00;1.00;;;;;18.04;58.19;100176.66;5058986;28;45520;-86
2021/08/07 02:44:57;;;;;;;;;1.00;1.00;;;;;17.98;57.94;100160.81;5058051;28;46311;-86
2021/08/07 02:47:24;;;;;;;;;2.00;0.00;;;;;18.04;58.35;100169.50;5058339;28;45455;-86
2021/08/07 02:49:51;;;;;;;;;0.33;0.33;;;;;18.04;58.47;100171.31;5058567;28;45425;-85
2021/08/07 02:52:17;;;;;;;;;2.00;1.00;;;;;18.02;58.12;100166.03;5058868;28;45460;-86
2021/08/07 02:54:43;;;;;;;;;2.00;1.00;;;;;18.01;58.31;100158.09;5058805;28;46244;-85
2021/08/07 02:57:09;;;;;;;;;0.00;0.00;;;;;18.03;58.23;100162.47;5058894;28;45318;-85
2021/08/07 02:59:34;;;;;;;;;0.67;0.67;;;;;18.04;58.15;100156.22;5058896;28;45329;-85
2021/08/07 03:02:01;;;;;;;;;0.33;0.00;;;;;18.05;58.76;100155.31;5057506;28;45243;-85
2021/08/07 03:04:26;;;;;;;;;2.00;0.00;;;;;18.06;58.54;100153.56;5057217;28;47832;-85
2021/08/07 03:06:51;;;;;;;;;4.67;1.67;;;;;18.06;58.91;100153.56;5058536;28;45413;-85
2021/08/07 03:09:17;;;;;;;;;0.67;0.67;;;;;18.00;58.76;100130.59;5058338;28;45752;-85
2021/08/07 03:11:42;;;;;;;;;1.33;0.67;;;;;18.08;58.44;100154.38;5058568;28;45251;-86
2021/08/07 03:14:08;;;;;;;;;1.67;1.00;;;;;18.07;58.47;100152.63;5057606;28;45925;-85
2021/08/07 03:16:33;;;;;;;;;2.00;0.00;;;;;18.04;58.75;100147.38;5057763;28;45374;-85
2021/08/07 03:18:58;;;;;;;;;0.67;0.00;;;;;18.04;58.64;100144.72;5057966;28;45335;-86
2021/08/07 03:21:24;;;;;;;;;2.67;2.00;;;;;18.02;58.88;100133.25;5058354;28;45290;-85
2021/08/07 03:23:49;;;;;;;;;0.67;0.67;;;;;18.05;58.92;100127.84;5058293;28;45620;-86
2021/08/07 03:26:15;;;;;;;;;4.33;2.00;;;;;17.99;58.77;100133.31;5058165;28;45244;-86
2021/08/07 03:28:40;;;;;;;;;0.67;0.67;;;;;18.04;58.95;100132.28;5057820;28;45442;-86
2021/08/07 03:31:06;;;;;;;;;0.67;0.67;;;;;18.00;59.23;100125.28;5058369;28;45492;-86
2021/08/07 03:33:31;;;;;;;;;1.00;1.00;;;;;18.02;59.39;100123.47;5057489;28;45386;-86
2021/08/07 03:35:57;;;;;;;;;3.00;1.00;;;;;17.99;59.04;100118.25;5057888;28;45325;-86
2021/08/07 03:38:22;;;;;;;;;1.00;1.00;;;;;18.04;59.18;100124.31;5057925;28;45394;-85
2021/08/07 03:40:47;;;;;;;;;2.00;2.00;;;;;18.01;58.89;100116.41;5057742;28;45584;-86
2021/08/07 03:43:13;;;;;;;;;1.00;1.00;;;;;18.02;59.25;100120.81;5058022;28;45362;-86
2021/08/07 03:45:38;;;;;;;;;1.00;1.00;;;;;18.04;59.23;100118.13;5058620;28;45281;-85
2021/08/07 03:48:04;;;;;;;;;1.33;1.00;;;;;17.99;59.34;100112.03;5056541;28;45326;-85
2021/08/07 03:50:30;;;;;;;;;5.67;2.00;;;;;17.99;59.38;100114.69;5056763;28;45406;-86
2021/08/07 03:52:55;;;;;;;;;1.67;1.00;;;;;17.98;58.88;100102.31;5057364;28;46348;-86
2021/08/07 03:55:20;;;;;;;;;1.33;1.33;;;;;17.97;59.41;100097.91;5057235;28;45406;-86
2021/08/07 03:57:58;;;;;;;;;3.00;1.00;;;;;17.97;59.52;100097.91;5057405;28;45864;-86
2021/08/07 04:00:29;;;;;;;;;2.00;2.00;;;;;18.00;59.24;100105.81;5057791;28;45294;-86
2021/08/07 04:02:55;;;;;;;;;4.00;1.00;;;;;17.92;59.16;100101.53;5056761;28;46060;-85
2021/08/07 04:05:20;;;;;;;;;1.00;1.00;;;;;17.97;59.56;100097.91;5056893;28;45267;-86
2021/08/07 04:07:46;;;;;;;;;1.00;1.00;;;;;17.97;59.55;100097.91;5057382;28;45346;-85
2021/08/07 04:10:13;;;;;;;;;1.33;1.00;;;;;17.93;59.65;100103.31;5058036;28;45430;-86
2021/08/07 04:12:39;;;;;;;;;2.33;1.00;;;;;17.94;59.71;100105.03;5057637;28;46028;-85
2021/08/07 04:15:06;;;;;;;;;1.00;0.67;;;;;17.92;59.79;100105.97;5057822;28;45348;-84
2021/08/07 04:17:32;;;;;;;;;1.33;1.33;;;;;17.91;59.60;100104.25;5055939;28;45374;-86
2021/08/07 04:19:57;;;;;;;;;2.00;2.00;;;;;17.91;59.93;100109.56;5056904;28;45315;-86
2021/08/07 04:22:24;;;;;;;;;3.33;1.00;;;;;17.89;60.17;100117.59;5057080;28;46111;-86
2021/08/07 04:24:49;;;;;;;;;0.00;0.00;;;;;17.85;59.73;100093.75;5055373;28;45350;-86
2021/08/07 04:27:15;;;;;;;;;3.67;2.00;;;;;17.91;60.00;100106.91;5059123;28;45373;-86
2021/08/07 04:29:40;;;;;;;;;4.33;2.00;;;;;17.88;59.95;100088.34;5061019;28;45303;-86
2021/08/07 04:32:05;;;;;;;;;2.33;2.00;;;;;17.88;60.11;100094.56;5060797;28;46520;-86
2021/08/07 04:34:31;;;;;;;;;5.67;2.00;;;;;17.87;60.39;100081.31;5060837;28;45345;-86
2021/08/07 04:36:56;;;;;;;;;2.00;2.00;;;;;17.89;60.01;100096.31;5060265;28;45277;-85
2021/08/07 04:39:22;;;;;;;;;3.00;1.67;;;;;17.89;60.02;100095.44;5060507;28;45223;-86
2021/08/07 04:41:47;;;;;;;;;6.00;1.00;;;;;17.88;60.06;100098.97;5060387;28;45899;-86
2021/08/07 04:44:13;;;;;;;;;3.00;1.67;;;;;17.85;60.62;100089.31;5060442;28;45573;-86
2021/08/07 04:46:38;;;;;;;;;2.33;1.67;;;;;17.81;60.26;100084.94;5059033;28;45349;-86
2021/08/07 04:49:03;;;;;;;;;1.00;1.00;;;;;17.79;60.54;100089.44;5060435;28;45985;-86
2021/08/07 04:51:29;;;;;;;;;5.00;3.00;;;;;17.77;60.89;100084.16;5060323;28;46489;-86
2021/08/07 04:53:54;;;;;;;;;1.67;1.67;;;;;17.78;60.61;100087.69;5059922;28;45338;-86
2021/08/07 04:56:20;;;;;;;;;4.00;2.67;;;;;17.78;60.89;100087.69;5058869;28;45567;-85
2021/08/07 04:58:46;;;;;;;;;2.33;2.00;;;;;17.77;60.63;100091.25;5060646;28;45421;-85
2021/08/07 05:01:11;;;;;;;;;1.00;1.00;;;;;17.70;60.77;100075.44;5059929;28;45490;-86
2021/08/07 05:03:37;;;;;;;;;1.33;1.00;;;;;17.74;60.91;100073.63;5060474;28;45318;-86
2021/08/07 05:06:02;;;;;;;;;2.00;1.00;;;;;17.64;60.95;100061.44;5060281;28;45306;-85
2021/08/07 05:08:28;;;;;;;;;4.00;1.00;;;;;17.63;61.00;100057.91;5060418;28;45398;-86
2021/08/07 05:10:55;;;;;;;;;4.00;1.67;;;;;17.66;61.09;100073.75;5059972;28;45608;-86
2021/08/07 05:13:20;;;;;;;;;2.00;2.00;;;;;17.65;61.31;100076.47;5067780;28;45332;-86
2021/08/07 05:15:46;;;;;;;;;2.00;2.00;;;;;17.61;61.10;100061.50;5071076;28;45309;-85
2021/08/07 05:18:11;;;;;;;;;5.00;2.00;;;;;17.66;61.32;100070.25;5069111;28;44859;-86
2021/08/07 05:20:36;;;;;;;;;1.67;1.67;;;;;17.58;61.64;100050.03;5063246;28;45480;-85
2021/08/07 05:23:02;;;;;;;;;3.00;1.67;;;;;17.64;61.39;100059.63;5060260;28;45295;-86
2021/08/07 05:25:27;;;;;;;;;2.00;2.00;;;;;17.63;61.49;100057.91;5061747;28;45473;-85
2021/08/07 05:27:53;;;;;;;;;3.33;2.00;;;;;17.64;61.86;100056.13;5060478;28;45441;-86
2021/08/07 05:30:18;;;;;;;;;3.00;3.00;;;;;17.63;61.50;100051.72;5061335;28;45466;-86
2021/08/07 05:32:44;;;;;;;;;2.00;1.67;;;;;17.59;61.71;100046.47;5061241;28;45501;-85
2021/08/07 05:35:10;;;;;;;;;4.33;2.67;;;;;17.52;61.93;100039.53;5060962;28;45326;-85
2021/08/07 05:37:42;;;;;;;;;2.33;1.00;;;;;17.59;61.53;100048.25;5061414;28;45329;-86
2021/08/07 05:40:09;;;;;;;;;2.67;2.00;;;;;17.57;61.90;100042.97;5061074;28;46264;-85
2021/08/07 05:42:35;;;;;;;;;5.00;2.00;;;;;17.58;62.21;100038.50;5060411;28;45457;-86
2021/08/07 05:45:00;;;;;;;;;3.33;1.33;;;;;17.61;62.22;100041.13;5060224;28;45382;-86
2021/08/07 05:47:26;;;;;;;;;1.33;1.33;;;;;17.63;62.43;100041.97;5075786;28;45329;-85
2021/08/07 05:49:51;;;;;;;;;3.00;3.00;;;;;17.66;62.04;100046.34;5059961;28;45698;-86
2021/08/07 05:52:16;;;;;;;;;1.00;1.00;;;;;17.61;62.30;100038.47;5059597;28;45471;-85
2021/08/07 05:54:42;;;;;;;;;7.00;2.00;;;;;17.58;62.22;100034.09;5060681;28;45450;-86
2021/08/07 05:57:07;;;;;;;;;1.33;1.33;;;;;17.67;62.16;100053.38;5059093;28;45507;-86
2021/08/07 05:59:33;;;;;;;;;3.67;2.00;;;;;17.66;62.23;100049.84;5058037;28;48179;-86
2021/08/07 06:01:58;;;;;;;;;5.00;2.00;;;;;17.70;62.28;100032.91;5059233;28;45346;-86
2021/08/07 06:04:24;;;;;;;;;2.67;2.67;;;;;17.71;62.09;100034.69;5059272;28;45335;-85
2021/08/07 06:06:49;;;;;;;;;1.67;1.67;;;;;17.73;62.27;100042.59;5060485;28;45391;-86
2021/08/07 06:09:15;;;;;;;;;3.00;1.33;;;;;17.70;62.20;100046.22;5062116;28;46418;-86
2021/08/07 06:11:40;;;;;;;;;2.00;1.00;;;;;17.68;62.38;100045.38;5075162;28;45725;-86
2021/08/07 06:14:06;;;;;;;;;2.00;2.00;;;;;17.66;62.17;100047.19;5073945;27;45512;-86
2021/08/07 06:16:31;;;;;;;;;2.00;1.00;;;;;17.71;62.22;100050.63;5057875;28;45261;-86
2021/08/07 06:18:56;;;;;;;;;4.00;2.00;;;;;17.74;62.48;100046.16;5058551;28;46280;-85
2021/08/07 06:21:22;;;;;;;;;2.67;2.00;;;;;17.77;62.53;100044.28;5059133;28;45759;-86
2021/08/07 06:23:47;;;;;;;;;2.00;2.00;;;;;17.71;62.44;100034.69;5059096;28;45243;-86
2021/08/07 06:26:15;;;;;;;;;3.33;2.67;;;;;17.80;62.39;100053.97;5059106;28;45792;-86
2021/08/07 06:28:40;;;;;;;;;2.33;1.00;;;;;17.70;62.12;100040.88;5074124;27;48288;-86
2021/08/07 06:31:06;;;;;;;;;1.33;1.33;;;;;17.73;62.54;100047.91;5059253;28;45259;-86
2021/08/07 06:33:32;;;;;;;;;2.00;2.00;;;;;17.74;62.29;100041.72;5058869;28;45469;-86
2021/08/07 06:35:59;;;;;;;;;1.67;1.67;;;;;17.77;62.46;100046.06;5059242;28;45437;-86
2021/08/07 06:38:24;;;;;;;;;2.33;1.33;;;;;17.74;62.36;100040.84;5073778;28;47624;-86
2021/08/07 06:40:50;;;;;;;;;1.00;1.00;;;;;17.69;62.74;100040.94;5058758;28;45256;-87
2021/08/07 06:43:15;;;;;;;;;3.00;1.33;;;;;17.69;63.16;100023.22;5058495;28;45441;-85
2021/08/07 06:45:41;;;;;;;;;2.67;1.00;;;;;17.63;62.67;100018.03;5058558;28;45315;-85
2021/08/07 06:48:06;;;;;;;;;2.33;1.00;;;;;17.68;62.84;100029.41;5057427;28;46418;-85
2021/08/07 06:50:31;;;;;;;;;2.00;2.00;;;;;17.65;62.84;100029.50;5057997;28;45299;-85
2021/08/07 06:52:57;;;;;;;;;2.33;1.33;;;;;17.70;63.20;100034.72;5074092;27;45353;-86
2021/08/07 06:55:22;;;;;;;;;1.00;1.00;;;;;17.66;63.07;100031.25;5058940;28;45434;-85
2021/08/07 06:57:48;;;;;;;;;5.67;2.00;;;;;17.67;62.91;100033.00;5058208;28;45468;-86
2021/08/07 07:00:13;;;;;;;;;1.00;1.00;;;;;17.66;63.00;100030.38;5058846;28;45434;-86
2021/08/07 07:02:39;;;;;;;;;3.33;1.67;;;;;17.63;62.94;100019.81;5058280;28;45366;-86
2021/08/07 07:05:05;;;;;;;;;2.67;2.67;;;;;17.70;63.04;100030.25;5058644;28;45405;-86
2021/08/07 07:07:30;;;;;;;;;2.67;2.00;;;;;17.74;63.14;100033.75;5058386;28;46184;-87
2021/08/07 07:09:56;;;;;;;;;5.33;2.67;;;;;17.75;62.97;100023.94;5058712;28;45347;-84
2021/08/07 07:12:21;;;;;;;;;3.00;1.67;;;;;17.81;63.16;100034.44;5058565;28;45425;-84
2021/08/07 07:14:47;;;;;;;;;1.67;1.00;;;;;17.81;63.33;100029.13;5057979;28;45480;-85
2021/08/07 07:17:12;;;;;;;;;1.33;1.33;;;;;17.81;63.55;100018.50;5057951;28;45414;-84
2021/08/07 07:19:38;;;;;;;;;1.67;1.33;;;;;17.90;63.41;100028.91;5057806;28;45469;-84
2021/08/07 07:22:05;;;;;;;;;9.67;2.00;;;;;17.91;63.38;100022.69;5059149;28;45306;-84
2021/08/07 07:24:30;;;;;;;;;5.00;2.67;;;;;17.96;63.27;100019.91;5061204;28;45634;-87
2021/08/07 07:26:56;;;;;;;;;1.00;0.00;;;;;18.02;63.09;100019.75;5058764;28;46368;-84
2021/08/07 07:29:21;;;;;;;;;1.00;1.00;;;;;18.05;63.05;100019.69;5080648;28;45311;-85
2021/08/07 07:31:46;;;;;;;;;0.67;0.67;;;;;18.19;63.09;100017.63;5063706;28;45329;-84
2021/08/07 07:34:12;;;;;;;;;2.00;2.00;;;;;18.22;62.84;99999.78;5065641;28;45293;-85
2021/08/07 07:36:37;;;;;;;;;4.00;1.00;;;;;18.42;62.78;100018.81;5065928;28;46123;-85
2021/08/07 07:39:04;;;;;;;;;1.67;1.00;;;;;18.52;62.90;100015.84;5065497;28;45287;-85
2021/08/07 07:41:31;;;;;;;;;2.67;0.67;;;;;18.61;62.47;100013.84;5069406;28;45280;-86
2021/08/07 07:43:56;;;;;;;;;2.67;1.33;;;;;18.72;62.45;100010.88;5067264;28;45845;-86
2021/08/07 07:46:22;;;;;;;;;3.67;1.67;;;;;18.77;62.21;100010.75;5059903;28;45506;-86
2021/08/07 07:48:47;;;;;;;;;3.00;1.33;;;;;18.81;61.89;99999.97;5061171;28;45338;-85
2021/08/07 07:51:13;;;;;;;;;2.67;1.33;;;;;18.93;61.85;100008.53;5060845;28;45496;-85
2021/08/07 07:53:38;;;;;;;;;0.67;0.67;;;;;18.98;61.71;100006.59;5059027;28;45303;-85
2021/08/07 07:56:04;;;;;;;;;2.00;1.00;;;;;19.04;61.44;100003.75;5058695;28;46196;-85
2021/08/07 07:58:30;;;;;;;;;1.00;1.00;;;;;19.14;61.10;100006.16;5057677;28;45550;-87
2021/08/07 08:00:55;;;;;;;;;2.00;1.00;;;;;19.21;60.93;99999.75;5057927;28;45378;-85
2021/08/07 08:03:20;;;;;;;;;1.00;1.00;;;;;19.29;60.87;99986.19;5056847;28;45501;-85
2021/08/07 08:05:46;;;;;;;;;1.00;1.00;;;;;19.44;60.81;99998.16;5056217;28;47018;-85
2021/08/07 08:08:12;;;;;;;;;2.67;1.67;;;;;19.51;60.59;99981.06;5057967;28;45297;-86
2021/08/07 08:10:38;;;;;;;;;4.00;2.00;;;;;19.54;60.62;99972.94;5058065;28;45434;-85
2021/08/07 08:13:04;;;;;;;;;3.00;2.00;;;;;19.68;59.93;99987.63;5058334;28;45604;-85
2021/08/07 08:15:30;;;;;;;;;2.33;1.00;;;;;19.72;59.85;99978.63;5057397;28;45453;-85
2021/08/07 08:17:56;;;;;;;;;6.00;2.00;;;;;19.75;59.63;99991.84;5057100;28;45822;-86
2021/08/07 08:20:22;;;;;;;;;4.00;3.00;;;;;19.79;59.40;99982.84;5057839;28;45280;-86
2021/08/07 08:22:48;;;;;;;;;5.33;2.33;;;;;19.86;59.19;99971.97;5057831;28;45245;-86
2021/08/07 08:25:14;;;;;;;;;2.00;2.00;;;;;19.92;59.04;99976.22;5057853;28;45817;-86
2021/08/07 08:27:40;;;;;;;;;2.33;2.33;;;;;19.95;58.71;99970.75;5057690;28;45460;-86
2021/08/07 08:30:08;;;;;;;;;4.00;1.00;;;;;19.96;58.28;99972.50;5057760;28;45649;-86
2021/08/07 08:32:34;;;;;;;;;1.67;1.00;;;;;19.97;58.43;99969.78;5057987;28;45303;-86
2021/08/07 08:34:59;;;;;;;;;3.67;2.00;;;;;19.98;58.09;99979.53;5057993;28;45440;-87
2021/08/07 08:37:24;;;;;;;;;2.33;1.00;;;;;20.00;58.13;99968.81;5057685;28;45406;-86
2021/08/07 08:39:50;;;;;;;;;2.00;1.00;;;;;20.01;58.58;99960.75;5056415;28;45330;-86
2021/08/07 08:42:16;;;;;;;;;1.67;1.00;;;;;19.96;58.32;99946.72;5057691;28;45472;-85
2021/08/07 08:44:42;;;;;;;;;3.00;0.00;;;;;20.08;57.87;99958.78;5057674;28;46245;-86
2021/08/07 08:47:08;;;;;;;;;4.67;1.00;;;;;19.99;57.94;99946.59;5057297;28;45374;-86
2021/08/07 08:49:34;;;;;;;;;2.00;1.00;;;;;19.99;58.30;99945.72;5058324;28;45380;-84
2021/08/07 08:52:01;;;;;;;;;4.00;1.00;;;;;20.01;58.02;99947.41;5059672;28;45322;-84
2021/08/07 08:54:27;;;;;;;;;2.33;1.00;;;;;20.08;58.33;99948.09;5059861;28;46214;-86
2021/08/07 08:56:53;;;;;;;;;1.00;1.00;;;;;20.04;58.25;99949.09;5058354;28;45405;-86
2021/08/07 08:59:20;;;;;;;;;4.33;1.00;;;;;20.06;58.29;99965.06;5057540;28;45413;-86
2021/08/07 09:01:46;;;;;;;;;2.67;1.00;;;;;20.07;58.76;99948.13;5057130;28;45481;-87
2021/08/07 09:04:11;;;;;;;;;1.00;1.00;;;;;20.02;58.91;99942.97;5056675;28;46630;-86
2021/08/07 09:06:37;;;;;;;;;1.00;1.00;;;;;19.97;59.59;99944.91;5060079;28;45378;-86
2021/08/07 09:09:10;;;;;;;;;0.00;0.00;;;;;19.95;59.90;99960.09;5057048;28;45429;-86
2021/08/07 09:11:37;;;;;;;;;4.00;2.67;;;;;19.94;60.08;99948.56;5058483;28;45463;-85
2021/08/07 09:14:27;;;;;;;;;3.33;1.67;;;;;19.86;60.87;99947.97;5060523;28;45597;-85
2021/08/07 09:16:59;;;;;;;;;3.00;1.00;;;;;19.82;61.42;99949.00;5060158;28;45360;-86
2021/08/07 09:19:25;;;;;;;;;1.00;1.00;;;;;19.78;62.01;99943.75;5059540;28;45442;-85
2021/08/07 09:22:14;;;;;;;;;3.00;1.33;;;;;19.77;62.17;99939.34;5075396;27;45372;-85
2021/08/07 09:25:01;;;;;;;;;1.67;1.00;;;;;19.78;62.72;99934.88;5059246;28;46397;-85
2021/08/07 09:27:36;;;;;;;;;2.33;1.33;;;;;19.79;63.24;99934.84;5059365;28;45479;-85
2021/08/07 09:30:24;;;;;;;;;1.33;1.00;;;;;19.82;63.31;99930.31;5059956;28;45354;-85
2021/08/07 09:32:53;;;;;;;;;1.00;1.00;;;;;19.88;63.17;99944.28;5059873;28;45287;-85
2021/08/07 09:35:30;;;;;;;;;1.00;1.00;;;;;19.86;63.21;99924.81;5058920;28;45446;-85
2021/08/07 09:38:24;;;;;;;;;1.00;1.00;;;;;19.90;63.14;99930.94;5059094;28;45303;-86
2021/08/07 09:40:57;;;;;;;;;3.33;2.00;;;;;19.88;63.18;99928.28;5059298;28;45375;-85
2021/08/07 09:43:24;;;;;;;;;2.00;2.00;;;;;19.84;63.29;99926.66;5059448;28;45320;-86
2021/08/07 09:46:06;;;;;;;;;3.00;2.00;;;;;19.84;63.23;99931.97;5059530;28;46435;-87
2021/08/07 09:48:47;;;;;;;;;2.00;2.00;;;;;19.83;63.68;99916.03;5059287;28;45247;-86
2021/08/07 09:51:21;;;;;;;;;2.00;2.00;;;;;19.85;63.98;99916.88;5059148;28;45418;-86
2021/08/07 09:54:01;;;;;;;;;2.33;1.00;;;;;19.84;63.31;99917.81;5059168;28;45257;-86
2021/08/07 09:56:27;;;;;;;;;2.33;1.33;;;;;19.78;63.91;99924.19;5058630;28;46627;-86
2021/08/07 09:59:08;;;;;;;;;4.33;1.00;;;;;19.84;63.69;99934.66;5057869;28;45462;-86
2021/08/07 10:01:35;;;;;;;;;1.00;1.00;;;;;19.82;63.65;99939.16;5058849;28;45356;-85
2021/08/07 10:04:10;;;;;;;;;1.67;1.67;;;;;19.81;63.72;99928.56;5059221;28;45326;-86
2021/08/07 10:06:36;;;;;;;;;3.00;3.00;;;;;19.78;63.51;99932.19;5059200;28;45455;-86
2021/08/07 10:09:03;;;;;;;;;3.00;2.00;;;;;19.69;63.88;99924.53;5058132;28;45339;-86
2021/08/07 10:11:29;;;;;;;;;1.33;0.00;;;;;19.71;63.91;99930.69;5059843;28;45452;-87
2021/08/07 10:13:56;;;;;;;;;2.00;2.00;;;;;19.67;64.13;99932.59;5059781;28;45430;-88
2021/08/07 10:16:22;;;;;;;;;0.67;0.67;;;;;19.63;64.20;99928.28;5057560;28;48174;-86
2021/08/07 10:18:50;;;;;;;;;3.00;2.00;;;;;19.61;65.08;99933.63;5059042;28;45239;-86
2021/08/07 10:21:16;;;;;;;;;4.67;2.00;;;;;19.53;64.97;99909.91;5061086;28;45360;-86
2021/08/07 10:23:42;;;;;;;;;1.00;1.00;;;;;19.59;65.21;99911.50;5085771;27;45366;-86
2021/08/07 10:26:10;;;;;;;;;2.00;2.00;;;;;19.58;65.32;99915.09;5072664;28;45923;-86
2021/08/07 10:28:41;;;;;;;;;1.00;1.00;;;;;19.56;65.71;99916.94;5071368;28;45141;-85
2021/08/07 10:31:11;;;;;;;;;2.00;2.00;;;;;19.52;66.26;99916.16;5058912;28;45302;-85
2021/08/07 10:33:36;;;;;;;;;1.67;1.00;;;;;19.49;65.41;99913.59;5059081;28;45330;-86
2021/08/07 10:36:02;;;;;;;;;2.67;1.67;;;;;19.48;65.57;99903.84;5059038;28;46182;-86
2021/08/07 10:38:28;;;;;;;;;2.33;1.00;;;;;19.42;65.81;99893.38;5060995;28;45482;-86
2021/08/07 10:40:54;;;;;;;;;1.00;1.00;;;;;19.47;65.94;99896.78;5058982;28;45405;-85
2021/08/07 10:43:22;;;;;;;;;1.33;1.00;;;;;19.47;65.70;99890.56;5075211;28;45256;-86
2021/08/07 10:45:48;;;;;;;;;1.00;1.00;;;;;19.42;65.96;99883.59;5060235;28;45491;-87
2021/08/07 10:48:38;;;;;;;;;1.67;1.00;;;;;19.48;66.04;99881.66;5060296;28;45481;-86
2021/08/07 10:51:18;;;;;;;;;0.00;0.00;;;;;19.47;65.92;99883.47;5058968;28;45351;-85
2021/08/07 10:54:03;;;;;;;;;3.67;1.00;;;;;19.47;66.35;99891.47;5059125;28;45350;-88
2021/08/07 10:56:28;;;;;;;;;0.67;0.67;;;;;19.49;66.05;99889.63;5058465;28;46487;-86
2021/08/07 10:58:56;;;;;;;;;1.67;1.00;;;;;19.47;66.50;99891.47;5057036;28;45978;-87
2021/08/07 11:01:21;;;;;;;;;1.00;1.00;;;;;19.54;66.59;99884.13;5058537;28;45378;-87
2021/08/07 11:04:02;;;;;;;;;0.67;0.67;;;;;19.66;65.90;99890.84;5058413;28;45236;-86
2021/08/07 11:06:44;;;;;;;;;3.00;2.00;;;;;19.83;66.43;99882.25;5058032;28;46606;-87
2021/08/07 11:09:28;;;;;;;;;1.00;1.00;;;;;19.99;66.09;99876.34;5058109;28;45267;-86
2021/08/07 11:12:14;;;;;;;;;1.00;1.00;;;;;20.15;65.94;99871.41;5056746;28;45306;-87
2021/08/07 11:14:47;;;;;;;;;2.00;1.00;;;;;20.34;66.26;99881.38;5058941;28;45499;-86
2021/08/07 11:17:12;;;;;;;;;1.33;1.00;;;;;20.50;65.18;99881.66;5056953;28;46515;-87
2021/08/07 11:19:56;;;;;;;;;1.33;1.33;;;;;20.64;65.47;99875.84;5057802;28;45275;-86
2021/08/07 11:22:36;;;;;;;;;1.00;1.00;;;;;20.75;64.55;99869.19;5058394;28;45522;-86
2021/08/07 11:25:14;;;;;;;;;1.00;0.00;;;;;20.85;64.59;99857.22;5058402;28;45315;-87
2021/08/07 11:30:39;;;;;;;;;2.00;1.00;;;;;21.33;63.54;99842.88;5057216;28;45374;-87
2021/08/07 11:33:06;;;;;;;;;1.67;1.00;;;;;21.60;63.37;99830.13;5062208;28;45280;-87